Time;durP1;ratioP1;P1;durP2;ratioP2;P2;SDS_P1;SDS_P2;PMS_P1;PMS_P2;Temp;Humidity;BMP_temperature;BMP_pressure;BME280_temperature;BME280_humidity;BME280_pressure;Samples;Min_cycle;Max_cycle;Signal;HPM_P1;HPM_P2
2022/05/21 00:01:33;;;;;;;1.30;1.20;;;17.60;68.80;;;;;;4988307;28;20466;-44
2022/05/21 00:03:59;;;;;;;1.10;1.03;;;17.60;68.20;;;;;;5003471;28;20828;-44
2022/05/21 00:06:26;;;;;;;2.20;1.40;;;17.50;69.00;;;;;;5009281;28;20472;-43
2022/05/21 00:08:53;;;;;;;1.57;1.30;;;17.50;69.00;;;;;;5014932;28;20946;-43
2022/05/21 00:11:20;;;;;;;1.20;1.10;;;17.40;69.60;;;;;;5010591;28;20599;-43
2022/05/21 00:13:48;;;;;;;2.20;1.40;;;17.40;69.80;;;;;;4995052;28;21019;-43
2022/05/21 00:16:16;;;;;;;1.33;1.17;;;17.40;69.50;;;;;;5011348;28;21022;-44
2022/05/21 00:18:43;;;;;;;1.50;1.40;;;17.30;68.80;;;;;;5010637;28;20518;-44
2022/05/21 00:21:12;;;;;;;2.90;1.63;;;17.30;68.90;;;;;;5010446;28;20488;-44
2022/05/21 00:23:40;;;;;;;1.73;0.80;;;17.30;69.10;;;;;;4992814;28;21125;-44
2022/05/21 00:26:13;;;;;;;1.77;1.47;;;17.30;69.60;;;;;;4994157;28;20499;-44
2022/05/21 00:28:42;;;;;;;1.63;1.53;;;17.30;69.00;;;;;;5002693;28;20923;-43
2022/05/21 00:31:11;;;;;;;2.33;1.93;;;17.40;69.60;;;;;;5009380;28;21193;-44
2022/05/21 00:33:39;;;;;;;3.60;1.50;;;17.30;69.40;;;;;;5004969;28;20826;-44
2022/05/21 00:36:07;;;;;;;4.90;1.70;;;17.30;69.60;;;;;;4993527;28;20512;-44
2022/05/21 00:38:36;;;;;;;3.30;1.70;;;17.30;69.80;;;;;;5008947;28;20946;-44
2022/05/21 00:41:05;;;;;;;6.43;2.00;;;17.30;69.10;;;;;;4997528;28;20528;-44
2022/05/21 00:43:36;;;;;;;2.50;2.30;;;17.30;68.70;;;;;;5004304;28;20977;-43
2022/05/21 00:46:05;;;;;;;2.30;1.90;;;17.20;68.50;;;;;;5007825;28;20532;-44
2022/05/21 00:48:32;;;;;;;2.50;1.93;;;17.20;69.00;;;;;;4992600;28;20463;-43
2022/05/21 00:51:00;;;;;;;3.40;2.13;;;17.10;68.20;;;;;;4994516;28;20486;-43
2022/05/21 00:53:28;;;;;;;2.17;1.97;;;17.00;69.10;;;;;;5009570;28;20832;-44
2022/05/21 00:55:56;;;;;;;2.37;2.17;;;17.00;69.20;;;;;;4993031;28;20444;-44
2022/05/21 01:01:14;;;;;;;2.20;2.03;;;16.90;69.40;;;;;;5008498;28;20464;-44
2022/05/21 01:03:43;;;;;;;2.60;2.27;;;16.90;69.30;;;;;;5008147;28;20464;-44
2022/05/21 01:06:11;;;;;;;3.63;2.90;;;16.90;68.90;;;;;;4975904;28;20851;-44
2022/05/21 01:08:38;;;;;;;10.43;3.43;;;17.00;68.60;;;;;;4990615;28;20468;-44
2022/05/21 01:11:17;;;;;;;5.10;4.00;;;16.90;68.00;;;;;;4994182;28;20495;-44
2022/05/21 01:13:46;;;;;;;6.67;3.70;;;16.90;67.30;;;;;;4990406;28;20483;-44
2022/05/21 01:16:14;;;;;;;4.90;3.47;;;16.80;67.90;;;;;;5001908;28;20542;-44
2022/05/21 01:18:41;;;;;;;4.30;3.27;;;16.80;67.80;;;;;;5003215;28;20468;-44
2022/05/21 01:21:08;;;;;;;5.20;3.87;;;16.70;68.40;;;;;;5006437;28;20456;-44
2022/05/21 01:23:35;;;;;;;3.10;2.80;;;16.70;68.10;;;;;;5009117;28;20464;-44
2022/05/21 01:26:05;;;;;;;4.57;3.37;;;16.70;68.40;;;;;;5008351;28;20464;-44
2022/05/21 01:28:36;;;;;;;4.57;3.10;;;16.70;68.90;;;;;;4979967;28;20459;-44
2022/05/21 01:31:04;;;;;;;3.10;2.80;;;16.70;68.80;;;;;;5004255;28;20492;-44
2022/05/21 01:33:34;;;;;;;4.67;3.17;;;16.80;68.40;;;;;;4989867;28;20959;-43
2022/05/21 01:36:02;;;;;;;5.27;3.10;;;16.80;68.70;;;;;;4991247;28;20467;-43
2022/05/21 01:38:30;;;;;;;6.07;3.10;;;16.80;68.20;;;;;;5007059;28;20996;-43
2022/05/21 01:40:58;;;;;;;4.10;3.80;;;16.80;69.20;;;;;;5010371;28;20519;-42
2022/05/21 01:46:12;;;;;;;3.67;2.80;;;16.70;69.60;;;;;;5006051;28;20955;-43
2022/05/21 01:48:39;;;;;;;3.30;3.00;;;16.70;69.70;;;;;;5007737;28;20530;-47
2022/05/21 01:51:07;;;;;;;3.20;2.50;;;16.70;70.10;;;;;;5008935;28;20829;-48
2022/05/21 01:53:36;;;;;;;3.77;2.97;;;16.60;70.40;;;;;;4992296;28;20466;-47
2022/05/21 01:56:04;;;;;;;3.93;2.97;;;16.60;70.40;;;;;;5006118;28;20838;-48
2022/05/21 01:58:31;;;;;;;3.30;3.00;;;16.60;70.50;;;;;;5009823;28;20822;-48
2022/05/21 02:00:58;;;;;;;3.73;3.40;;;16.60;70.70;;;;;;5009106;28;20478;-47
2022/05/21 02:03:26;;;;;;;4.10;3.03;;;16.60;70.60;;;;;;5008430;28;20827;-47
2022/05/21 02:05:53;;;;;;;4.03;3.20;;;16.50;70.60;;;;;;4993440;28;20463;-45
2022/05/21 02:08:20;;;;;;;3.90;3.40;;;16.60;70.80;;;;;;5012424;28;20460;-45
2022/05/21 02:10:47;;;;;;;4.97;3.30;;;16.50;71.00;;;;;;5003379;28;20526;-45
2022/05/21 02:13:19;;;;;;;2.87;2.67;;;16.50;71.20;;;;;;5010118;28;20539;-42
2022/05/21 02:15:46;;;;;;;3.60;3.30;;;16.50;70.60;;;;;;5006901;28;20470;-42
2022/05/21 02:18:13;;;;;;;3.97;3.60;;;16.40;71.00;;;;;;4989866;28;20456;-42
2022/05/21 02:20:41;;;;;;;4.50;4.10;;;16.40;70.90;;;;;;5007855;28;20450;-42
2022/05/21 02:23:09;;;;;;;5.70;4.30;;;16.40;71.10;;;;;;5007241;28;20467;-42
2022/05/21 02:25:36;;;;;;;3.87;3.53;;;16.30;71.40;;;;;;4991436;28;20480;-42
2022/05/21 02:28:03;;;;;;;6.53;4.10;;;16.30;71.60;;;;;;5007185;28;20494;-43
2022/05/21 02:30:30;;;;;;;14.23;3.87;;;16.30;71.80;;;;;;4991002;28;20456;-43
2022/05/21 02:32:57;;;;;;;4.93;4.00;;;16.30;71.70;;;;;;5006990;28;20977;-42
2022/05/21 02:35:23;;;;;;;6.57;4.10;;;16.20;71.80;;;;;;5009663;28;20459;-42
2022/05/21 02:40:36;;;;;;;5.83;4.90;;;16.10;72.10;;;;;;5010620;28;20452;-43
2022/05/21 02:43:02;;;;;;;5.47;4.67;;;16.00;72.20;;;;;;5005830;28;20464;-42
2022/05/21 02:45:30;;;;;;;4.83;4.37;;;16.00;72.40;;;;;;4992232;28;20480;-44
2022/05/21 02:47:57;;;;;;;4.80;4.10;;;15.90;72.50;;;;;;5004052;28;20571;-44
2022/05/21 02:50:32;;;;;;;7.20;4.47;;;15.90;72.70;;;;;;5007062;28;20528;-44
2022/05/21 02:53:05;;;;;;;6.90;4.33;;;15.80;72.70;;;;;;5007555;28;20851;-44
2022/05/21 02:55:33;;;;;;;6.00;4.73;;;15.80;73.00;;;;;;5006700;28;20949;-44
2022/05/21 02:58:00;;;;;;;4.87;4.30;;;15.80;72.70;;;;;;5004596;28;20475;-44
2022/05/21 03:00:31;;;;;;;7.83;5.10;;;15.70;72.90;;;;;;4999600;28;20465;-43
2022/05/21 03:02:58;;;;;;;6.60;5.60;;;15.70;73.20;;;;;;5003836;28;20478;-44
2022/05/21 03:05:26;;;;;;;7.23;5.10;;;15.60;73.20;;;;;;4988789;28;20514;-44
2022/05/21 03:07:53;;;;;;;8.40;5.20;;;15.60;73.30;;;;;;5009468;28;20468;-44
2022/05/21 03:10:28;;;;;;;5.00;4.50;;;15.60;73.20;;;;;;4988682;28;20472;-44
2022/05/21 03:12:58;;;;;;;7.13;6.43;;;15.60;73.50;;;;;;5005825;28;20503;-44
2022/05/21 03:15:34;;;;;;;5.57;4.90;;;15.60;73.50;;;;;;5006337;28;20464;-44
2022/05/21 03:18:03;;;;;;;6.83;5.00;;;15.50;73.50;;;;;;5000377;28;20464;-44
2022/05/21 03:20:30;;;;;;;11.03;5.40;;;15.50;73.40;;;;;;5008031;28;20452;-44
2022/05/21 03:22:57;;;;;;;6.70;5.60;;;15.50;73.10;;;;;;4989632;28;20474;-43
2022/05/21 03:25:24;;;;;;;7.17;5.37;;;15.40;73.20;;;;;;5008042;28;20458;-44
2022/05/21 03:27:51;;;;;;;7.77;5.10;;;15.40;73.10;;;;;;5005018;28;20486;-44
2022/05/21 03:30:22;;;;;;;5.60;4.20;;;15.40;73.30;;;;;;4987614;28;20472;-44
2022/05/21 03:32:49;;;;;;;5.20;4.77;;;15.30;73.60;;;;;;5006265;28;20488;-44
2022/05/21 03:35:18;;;;;;;7.33;5.07;;;15.30;73.70;;;;;;4989408;28;20464;-43
2022/05/21 03:37:46;;;;;;;5.80;4.80;;;15.30;73.80;;;;;;5010694;28;20834;-44
2022/05/21 03:40:17;;;;;;;5.63;4.80;;;15.30;74.00;;;;;;5004425;28;20474;-44
2022/05/21 03:42:45;;;;;;;6.20;4.50;;;15.20;74.10;;;;;;5005508;28;20480;-44
2022/05/21 03:45:13;;;;;;;5.40;4.00;;;15.20;74.10;;;;;;5005213;28;20560;-44
2022/05/21 03:47:41;;;;;;;4.43;4.00;;;15.20;74.00;;;;;;5006057;28;20905;-44
2022/05/21 03:50:15;;;;;;;4.30;3.90;;;15.20;74.00;;;;;;5007949;28;20502;-44
2022/05/21 03:52:41;;;;;;;4.33;3.93;;;15.20;74.00;;;;;;5006768;28;20514;-44
2022/05/21 03:55:09;;;;;;;4.03;3.63;;;15.20;73.80;;;;;;5006356;28;20449;-44
2022/05/21 03:57:36;;;;;;;6.57;3.63;;;15.20;74.00;;;;;;4999817;28;20491;-44
2022/05/21 04:00:10;;;;;;;3.63;3.00;;;15.20;74.00;;;;;;5009474;28;20496;-44
2022/05/21 04:02:37;;;;;;;3.33;3.00;;;15.20;74.00;;;;;;5006282;28;20781;-43
2022/05/21 04:05:06;;;;;;;5.23;4.03;;;15.20;73.60;;;;;;5007052;28;20836;-43
2022/05/21 04:07:33;;;;;;;4.07;3.57;;;15.20;73.70;;;;;;5007262;28;20464;-43
2022/05/21 04:10:00;;;;;;;8.23;3.70;;;15.20;73.70;;;;;;5006256;28;20982;-44
2022/05/21 04:12:27;;;;;;;4.87;3.23;;;15.20;73.80;;;;;;5006835;28;20499;-44
2022/05/21 04:14:54;;;;;;;3.83;2.70;;;15.20;73.60;;;;;;4987896;28;20455;-44
2022/05/21 04:17:20;;;;;;;3.20;3.00;;;15.20;73.80;;;;;;5002753;28;20472;-44
2022/05/21 04:19:47;;;;;;;3.10;2.80;;;15.20;73.70;;;;;;5005857;28;20479;-44
2022/05/21 04:22:14;;;;;;;3.10;2.70;;;15.20;73.80;;;;;;5008747;28;20471;-44
2022/05/21 04:24:41;;;;;;;2.30;2.10;;;15.20;73.60;;;;;;5006905;28;20475;-44
2022/05/21 04:27:07;;;;;;;3.30;2.40;;;15.20;73.60;;;;;;5006306;28;20486;-44
2022/05/21 04:29:35;;;;;;;2.87;2.50;;;15.20;73.80;;;;;;5005566;28;20904;-44
2022/05/21 04:32:03;;;;;;;3.83;2.50;;;15.20;73.40;;;;;;5008155;28;21014;-44
2022/05/21 04:34:31;;;;;;;3.20;2.33;;;15.20;73.30;;;;;;5003346;28;20517;-44
2022/05/21 04:36:57;;;;;;;3.80;2.43;;;15.30;73.30;;;;;;5007107;28;20471;-44
2022/05/21 04:39:28;;;;;;;4.17;3.10;;;15.30;73.10;;;;;;5007194;28;20455;-44
2022/05/21 04:41:55;;;;;;;2.20;2.00;;;15.40;73.10;;;;;;5001635;28;20484;-45
2022/05/21 04:44:25;;;;;;;3.23;2.10;;;15.40;73.00;;;;;;5006054;28;20467;-45
2022/05/21 04:46:52;;;;;;;2.53;2.10;;;15.40;73.00;;;;;;4987344;28;20961;-45
2022/05/21 04:49:19;;;;;;;2.50;1.90;;;15.40;72.80;;;;;;5002565;28;20542;-44
2022/05/21 04:51:45;;;;;;;1.90;1.80;;;15.40;73.10;;;;;;5005178;28;20579;-44
2022/05/21 04:54:12;;;;;;;1.90;1.80;;;15.40;72.70;;;;;;5000566;28;20460;-45
2022/05/21 04:56:39;;;;;;;2.57;1.90;;;15.40;72.90;;;;;;4988499;28;20459;-45
2022/05/21 04:59:10;;;;;;;2.27;2.00;;;15.40;73.00;;;;;;5009203;28;20467;-45
2022/05/21 05:01:39;;;;;;;3.00;2.13;;;15.50;73.00;;;;;;5004615;28;20995;-44
2022/05/21 05:04:07;;;;;;;2.40;1.70;;;15.50;72.90;;;;;;5004620;28;20490;-45
2022/05/21 05:06:36;;;;;;;5.20;2.30;;;15.50;73.40;;;;;;5010911;28;20949;-45
2022/05/21 05:09:05;;;;;;;1.80;1.60;;;15.50;73.40;;;;;;5010238;28;20460;-45
2022/05/21 05:11:32;;;;;;;4.23;1.47;;;15.50;73.40;;;;;;5005712;28;20492;-45
2022/05/21 05:13:59;;;;;;;1.33;1.23;;;15.50;73.10;;;;;;5009124;28;20461;-45
2022/05/21 05:16:25;;;;;;;2.27;1.60;;;15.60;72.70;;;;;;4989058;28;20464;-45
2022/05/21 05:18:52;;;;;;;3.93;1.30;;;15.60;72.20;;;;;;5006942;28;20471;-45
2022/05/21 05:21:19;;;;;;;1.43;1.33;;;15.60;72.60;;;;;;5010157;28;20460;-45
2022/05/21 05:23:46;;;;;;;2.90;1.57;;;15.60;72.50;;;;;;4989199;28;20464;-45
2022/05/21 05:26:12;;;;;;;2.50;1.63;;;15.60;72.70;;;;;;5011945;28;20481;-44
2022/05/21 05:28:40;;;;;;;2.40;1.80;;;15.70;71.80;;;;;;5013464;28;20456;-44
2022/05/21 05:31:08;;;;;;;5.50;2.20;;;15.70;71.30;;;;;;5007716;28;20500;-44
2022/05/21 05:33:34;;;;;;;1.70;1.60;;;15.70;71.50;;;;;;4986496;28;20472;-44
2022/05/21 05:36:01;;;;;;;1.60;1.50;;;15.70;71.70;;;;;;4998833;28;20964;-44
2022/05/21 05:38:28;;;;;;;2.50;1.60;;;15.70;71.70;;;;;;5002434;28;20464;-45
2022/05/21 05:40:55;;;;;;;3.60;1.47;;;15.70;71.10;;;;;;5002574;28;20460;-46
2022/05/21 05:43:23;;;;;;;1.73;1.63;;;15.60;71.80;;;;;;5003386;28;20673;-46
2022/05/21 05:45:53;;;;;;;3.33;1.50;;;15.60;72.50;;;;;;4977644;28;20461;-46
2022/05/21 05:48:20;;;;;;;2.23;1.43;;;15.70;72.40;;;;;;5002373;28;20456;-46
2022/05/21 05:50:53;;;;;;;2.00;1.47;;;15.70;71.90;;;;;;5009121;28;21025;-46
2022/05/21 05:53:21;;;;;;;1.83;1.50;;;15.80;71.60;;;;;;4998669;28;20484;-46
2022/05/21 05:55:48;;;;;;;1.97;1.20;;;15.90;71.80;;;;;;5006752;28;20465;-46
2022/05/21 06:01:01;;;;;;;1.60;1.50;;;16.00;71.00;;;;;;5001302;28;20459;-46
2022/05/21 06:03:27;;;;;;;2.43;1.50;;;16.00;71.20;;;;;;5001691;28;20547;-46
2022/05/21 06:05:54;;;;;;;2.90;1.27;;;16.10;71.10;;;;;;5007228;28;20460;-46
2022/05/21 06:08:21;;;;;;;5.93;1.70;;;16.10;71.10;;;;;;4999877;28;20951;-46
2022/05/21 06:10:49;;;;;;;5.27;1.53;;;16.10;71.20;;;;;;4990509;28;20469;-46
2022/05/21 06:13:16;;;;;;;2.80;1.57;;;16.20;70.40;;;;;;4986588;28;20504;-46
2022/05/21 06:15:43;;;;;;;2.00;1.43;;;16.20;71.00;;;;;;5006051;28;20977;-47
2022/05/21 06:18:16;;;;;;;2.90;1.13;;;16.20;71.10;;;;;;5001688;28;20459;-46
2022/05/21 06:20:44;;;;;;;2.97;1.87;;;16.30;70.30;;;;;;5006758;28;20463;-46
2022/05/21 06:23:12;;;;;;;4.07;1.27;;;16.30;69.30;;;;;;5002870;28;20841;-46
2022/05/21 06:25:39;;;;;;;2.90;1.30;;;16.40;69.20;;;;;;5006691;28;20502;-46
2022/05/21 06:28:07;;;;;;;1.33;1.00;;;16.40;69.80;;;;;;4987358;28;20472;-45
2022/05/21 06:30:37;;;;;;;1.57;1.47;;;16.40;69.60;;;;;;4992671;28;20474;-45
2022/05/21 06:33:21;;;;;;;3.00;1.80;;;16.40;70.00;;;;;;5002572;28;20861;-45
2022/05/21 06:36:05;;;;;;;3.87;1.43;;;16.50;69.80;;;;;;4999908;28;20488;-45
2022/05/21 06:38:33;;;;;;;2.57;1.20;;;16.50;69.90;;;;;;4995825;28;20468;-45
2022/05/21 06:41:01;;;;;;;1.60;1.50;;;16.60;69.30;;;;;;5002495;28;20464;-45
2022/05/21 06:43:28;;;;;;;2.73;1.20;;;16.60;67.80;;;;;;4986251;28;20460;-45
2022/05/21 06:45:55;;;;;;;2.37;1.40;;;16.70;68.10;;;;;;4992415;28;20859;-45
2022/05/21 06:48:22;;;;;;;1.17;1.07;;;16.70;67.80;;;;;;4977731;28;20461;-45
2022/05/21 06:50:49;;;;;;;2.70;1.37;;;16.80;67.60;;;;;;5002619;28;20479;-45
2022/05/21 06:53:16;;;;;;;2.33;1.30;;;16.80;68.20;;;;;;5002878;28;20494;-45
2022/05/21 06:55:42;;;;;;;2.50;1.40;;;16.90;68.30;;;;;;5006632;28;20440;-45
2022/05/21 06:58:10;;;;;;;4.13;1.30;;;17.00;67.60;;;;;;4999613;28;20464;-45
2022/05/21 07:00:37;;;;;;;2.40;1.40;;;17.20;68.20;;;;;;5003262;28;20526;-45
2022/05/21 07:03:04;;;;;;;4.33;1.20;;;17.30;65.10;;;;;;4997447;28;20460;-45
2022/05/21 07:08:19;;;;;;;2.03;1.40;;;17.40;66.50;;;;;;5002417;28;20587;-45
2022/05/21 07:10:48;;;;;;;4.40;0.90;;;17.60;66.40;;;;;;4998687;28;20464;-45
2022/05/21 07:13:16;;;;;;;3.37;1.40;;;17.70;65.60;;;;;;4995846;28;20493;-45
2022/05/21 07:15:43;;;;;;;2.10;1.10;;;17.80;65.30;;;;;;4998672;28;20452;-45
2022/05/21 07:18:12;;;;;;;2.13;1.27;;;18.00;64.30;;;;;;4981120;28;20471;-45
2022/05/21 07:20:39;;;;;;;3.03;1.30;;;18.00;64.80;;;;;;5004253;28;20487;-45
2022/05/21 07:23:06;;;;;;;2.73;1.23;;;18.10;64.80;;;;;;5008000;28;20473;-45
2022/05/21 07:25:33;;;;;;;1.67;1.00;;;18.20;64.30;;;;;;5005103;28;20460;-45
2022/05/21 07:28:00;;;;;;;2.70;1.40;;;18.20;64.30;;;;;;5005833;28;20470;-45
2022/05/21 07:30:29;;;;;;;1.73;1.07;;;18.40;63.00;;;;;;5003261;28;20460;-45
2022/05/21 07:32:56;;;;;;;3.23;1.30;;;18.50;63.70;;;;;;5005956;28;20492;-46
2022/05/21 07:35:25;;;;;;;4.60;1.90;;;18.50;62.20;;;;;;5005742;28;20548;-45
2022/05/21 07:37:52;;;;;;;3.87;1.70;;;18.60;63.40;;;;;;4983621;28;20951;-45
2022/05/21 07:40:24;;;;;;;4.53;1.23;;;18.70;62.40;;;;;;5000746;28;20461;-45
2022/05/21 07:42:52;;;;;;;1.17;1.07;;;18.80;62.60;;;;;;5000473;28;20468;-45
2022/05/21 07:45:20;;;;;;;1.57;1.20;;;18.90;62.10;;;;;;5000918;28;20893;-45
2022/05/21 07:47:49;;;;;;;1.73;1.00;;;18.90;61.20;;;;;;5003539;28;20463;-45
2022/05/21 07:50:18;;;;;;;2.80;1.10;;;18.90;61.60;;;;;;5003582;28;20631;-45
2022/05/21 07:52:44;;;;;;;1.80;0.90;;;18.90;61.80;;;;;;5000422;28;21017;-45
2022/05/21 07:55:12;;;;;;;1.20;0.93;;;19.00;62.60;;;;;;4980001;28;20457;-45
2022/05/21 07:57:39;;;;;;;2.33;1.20;;;19.10;62.70;;;;;;5003588;28;20580;-45
2022/05/21 08:00:08;;;;;;;2.80;1.10;;;19.10;62.10;;;;;;4987226;28;20463;-45
2022/05/21 08:02:34;;;;;;;1.80;1.10;;;19.20;62.50;;;;;;5002775;28;20460;-45
2022/05/21 08:05:01;;;;;;;4.17;1.60;;;19.20;61.60;;;;;;5004568;28;20571;-45
2022/05/21 08:07:28;;;;;;;2.53;1.40;;;19.20;61.10;;;;;;5002208;28;20479;-45
2022/05/21 08:09:55;;;;;;;2.30;1.10;;;19.20;61.80;;;;;;5003336;28;20540;-45
2022/05/21 08:12:22;;;;;;;3.80;1.57;;;19.30;61.30;;;;;;4996942;28;20495;-45
2022/05/21 08:14:55;;;;;;;2.50;1.00;;;19.40;60.20;;;;;;4985878;28;20957;-46
2022/05/21 08:17:22;;;;;;;3.83;1.50;;;19.50;60.50;;;;;;5001407;28;20460;-45
2022/05/21 08:19:48;;;;;;;3.10;1.27;;;19.50;60.30;;;;;;5001620;28;20564;-45
2022/05/21 08:27:46;;;;;;;4.00;1.00;;;19.50;57.80;;;;;;4998388;28;22801;-45
2022/05/21 08:30:12;;;;;;;4.90;0.90;;;19.50;58.10;;;;;;4989539;28;20473;-45
2022/05/21 08:32:39;;;;;;;4.73;1.00;;;19.50;57.70;;;;;;5010015;28;20495;-45
2022/05/21 08:35:06;;;;;;;3.40;1.70;;;19.40;58.50;;;;;;5008940;28;20462;-45
2022/05/21 08:37:35;;;;;;;3.90;0.97;;;19.40;58.00;;;;;;5008094;28;20888;-46
2022/05/21 08:40:03;;;;;;;0.70;0.50;;;19.40;58.70;;;;;;4992061;28;20967;-45
2022/05/21 08:42:42;;;;;;;4.03;1.30;;;19.50;58.40;;;;;;5004980;28;20502;-45
2022/05/21 08:45:12;;;;;;;2.60;0.90;;;19.60;57.30;;;;;;5006443;28;20455;-45
2022/05/21 08:47:40;;;;;;;3.77;1.60;;;19.70;57.20;;;;;;5009967;28;20973;-45
2022/05/21 08:50:14;;;;;;;1.60;0.70;;;19.70;57.10;;;;;;4986084;28;20494;-45
2022/05/21 08:53:05;;;;;;;3.13;1.43;;;19.70;58.60;;;;;;5004479;28;20912;-45
2022/05/21 08:55:36;;;;;;;2.70;0.87;;;19.80;58.40;;;;;;5007016;28;20460;-48
2022/05/21 08:58:29;;;;;;;2.60;1.30;;;19.80;57.90;;;;;;5011833;28;20452;-46
2022/05/21 09:00:56;;;;;;;2.63;1.20;;;19.80;59.60;;;;;;5011132;28;20572;-45
2022/05/21 09:03:25;;;;;;;3.40;0.90;;;19.80;57.50;;;;;;4986678;28;20940;-45
2022/05/21 09:06:17;;;;;;;4.33;1.30;;;19.70;57.40;;;;;;5008476;28;20847;-45
2022/05/21 09:08:59;;;;;;;4.60;1.50;;;19.60;58.40;;;;;;5003530;28;20455;-46
2022/05/21 09:11:47;;;;;;;5.40;1.30;;;19.50;58.50;;;;;;5009040;28;20539;-46
2022/05/21 09:14:42;;;;;;;3.50;1.50;;;19.30;59.20;;;;;;5009235;28;20502;-45
2022/05/21 09:17:15;;;;;;;3.47;1.07;;;19.30;59.50;;;;;;5008929;28;20547;-46
2022/05/21 09:19:53;;;;;;;2.30;1.30;;;19.20;58.00;;;;;;5009439;28;20465;-46
2022/05/21 09:22:22;;;;;;;2.50;1.27;;;19.20;59.10;;;;;;5001935;28;20530;-45
2022/05/21 09:25:22;;;;;;;4.43;1.30;;;19.10;59.30;;;;;;5002060;28;20453;-46
2022/05/21 09:28:06;;;;;;;1.87;1.37;;;19.10;59.20;;;;;;5008711;28;20460;-45
2022/05/21 09:30:40;;;;;;;3.80;1.60;;;19.10;59.30;;;;;;4990384;28;21235;-45
2022/05/21 09:33:34;;;;;;;1.17;0.70;;;19.10;59.20;;;;;;5007126;28;21108;-46
2022/05/21 09:36:01;;;;;;;4.80;1.03;;;19.00;58.50;;;;;;5004207;28;21176;-46
2022/05/21 09:38:36;;;;;;;1.37;1.27;;;19.20;60.00;;;;;;5005259;28;20452;-46
2022/05/21 09:41:11;;;;;;;3.23;1.30;;;19.40;59.00;;;;;;4990498;28;20836;-46
2022/05/21 09:46:33;;;;;;;2.20;1.43;;;19.40;59.20;;;;;;5007219;28;20502;-46
2022/05/21 09:49:20;;;;;;;4.47;1.00;;;19.40;59.30;;;;;;5004896;28;22370;-47
2022/05/21 09:52:05;;;;;;;2.57;1.20;;;19.40;58.90;;;;;;5003956;28;20483;-47
2022/05/21 09:54:45;;;;;;;4.47;1.20;;;19.40;59.50;;;;;;4992025;28;20491;-46
2022/05/21 09:57:34;;;;;;;4.07;1.23;;;19.50;58.50;;;;;;5008700;28;20511;-46
2022/05/21 10:00:24;;;;;;;1.73;1.20;;;19.70;58.30;;;;;;5005309;28;20610;-47
2022/05/21 10:02:55;;;;;;;3.47;1.17;;;19.90;57.10;;;;;;5005713;28;20830;-46
2022/05/21 10:05:35;;;;;;;3.07;1.20;;;20.10;56.20;;;;;;5005424;28;21279;-46
2022/05/21 10:11:08;;;;;;;1.50;1.17;;;20.30;56.80;;;;;;5009407;28;20466;-47
2022/05/21 10:13:56;;;;;;;2.60;1.40;;;20.50;56.20;;;;;;5006616;28;20521;-46
2022/05/21 10:16:46;;;;;;;2.90;1.30;;;20.60;55.70;;;;;;5010782;28;20447;-46
2022/05/21 10:19:39;;;;;;;4.47;1.50;;;20.70;55.40;;;;;;5007027;28;20462;-46
2022/05/21 10:22:34;;;;;;;4.90;1.27;;;20.80;55.80;;;;;;4962391;28;20463;-46
2022/05/21 10:25:14;;;;;;;3.07;1.50;;;20.80;54.40;;;;;;4987371;28;21071;-46
2022/05/21 10:28:02;;;;;;;2.53;1.20;;;20.60;54.10;;;;;;5008234;28;20475;-46
2022/05/21 10:30:35;;;;;;;1.97;1.17;;;20.60;55.40;;;;;;5005666;28;20468;-46
2022/05/21 10:33:14;;;;;;;2.30;1.60;;;20.60;54.30;;;;;;5006337;28;20500;-46
2022/05/21 10:36:04;;;;;;;2.43;1.00;;;20.60;54.30;;;;;;5009797;28;20913;-46
2022/05/21 10:38:31;;;;;;;1.17;0.80;;;20.70;54.80;;;;;;5005292;28;20567;-46
2022/05/21 10:41:05;;;;;;;1.87;1.20;;;20.70;53.20;;;;;;5004218;28;20502;-46
2022/05/21 10:43:52;;;;;;;2.40;1.60;;;20.60;53.70;;;;;;5005293;28;20472;-46
2022/05/21 10:46:35;;;;;;;2.50;1.03;;;20.50;53.50;;;;;;4985950;28;20529;-46
2022/05/21 10:49:23;;;;;;;2.93;1.27;;;20.30;54.50;;;;;;5005833;28;20915;-46
2022/05/21 10:52:08;;;;;;;2.60;1.20;;;20.20;54.30;;;;;;5006134;28;20495;-46
2022/05/21 10:55:01;;;;;;;2.87;1.80;;;20.20;54.50;;;;;;5006029;28;20488;-46
2022/05/21 10:57:36;;;;;;;1.63;1.27;;;20.10;55.60;;;;;;5004618;28;20627;-46
2022/05/21 11:00:13;;;;;;;2.73;1.23;;;20.10;54.00;;;;;;4986971;28;20798;-46
2022/05/21 11:03:08;;;;;;;6.73;1.73;;;20.10;54.90;;;;;;4982330;28;20468;-46
2022/05/21 11:06:00;;;;;;;1.30;1.20;;;20.10;54.20;;;;;;5005342;28;20464;-46
2022/05/21 11:09:02;;;;;;;2.83;1.23;;;20.10;54.30;;;;;;5006312;28;20674;-46
2022/05/21 11:11:38;;;;;;;1.37;1.00;;;20.00;53.70;;;;;;5006631;28;20499;-46
2022/05/21 11:14:27;;;;;;;1.53;1.20;;;20.00;54.70;;;;;;5003121;28;20900;-46
2022/05/21 11:17:28;;;;;;;3.73;1.10;;;20.10;54.10;;;;;;5007734;28;20576;-45
2022/05/21 11:20:05;;;;;;;3.00;1.33;;;20.10;54.90;;;;;;5006502;28;20464;-46
2022/05/21 11:22:41;;;;;;;3.17;1.37;;;20.10;53.00;;;;;;4987035;28;20555;-45
2022/05/21 11:25:12;;;;;;;1.50;0.70;;;20.10;52.80;;;;;;4987371;28;20867;-45
2022/05/21 11:27:49;;;;;;;1.60;0.80;;;20.10;52.40;;;;;;5003495;28;20471;-45
2022/05/21 11:30:20;;;;;;;2.00;1.13;;;20.10;53.10;;;;;;5001679;28;20495;-45
2022/05/21 11:38:38;;;;;;;1.20;0.80;;;20.20;52.10;;;;;;5002678;28;20468;-45
2022/05/21 11:41:27;;;;;;;4.37;1.20;;;20.20;51.10;;;;;;5005104;28;20934;-45
2022/05/21 11:43:57;;;;;;;2.67;1.10;;;20.10;52.60;;;;;;5005028;28;20553;-45
2022/05/21 11:46:36;;;;;;;2.30;1.23;;;20.20;51.90;;;;;;4993856;28;20468;-46
2022/05/21 11:49:28;;;;;;;1.60;1.00;;;20.20;52.10;;;;;;5003916;28;20466;-44
2022/05/21 11:51:58;;;;;;;6.30;1.30;;;20.30;51.60;;;;;;4999868;28;20459;-45
2022/05/21 11:54:49;;;;;;;1.30;0.93;;;20.30;53.00;;;;;;5003094;28;20568;-45
2022/05/21 11:57:40;;;;;;;2.50;1.27;;;20.30;52.70;;;;;;5006473;28;20495;-45
2022/05/21 12:00:08;;;;;;;1.27;1.13;;;20.30;52.40;;;;;;4988789;28;20444;-45
2022/05/21 12:03:02;;;;;;;1.90;1.10;;;20.40;52.00;;;;;;5005259;28;20464;-45
2022/05/21 12:05:38;;;;;;;2.23;1.10;;;20.40;53.30;;;;;;5006597;28;20483;-45
2022/05/21 12:08:33;;;;;;;3.80;2.17;;;20.50;52.70;;;;;;5012052;28;20448;-45
2022/05/21 12:11:04;;;;;;;2.90;1.10;;;20.50;52.70;;;;;;5010993;28;20467;-45
2022/05/21 12:13:34;;;;;;;1.77;1.23;;;20.60;51.30;;;;;;5011831;28;20492;-45
2022/05/21 12:16:16;;;;;;;3.60;0.90;;;20.60;50.90;;;;;;5011170;28;20452;-45
2022/05/21 12:18:46;;;;;;;1.90;1.10;;;20.70;50.90;;;;;;5002300;28;20467;-45
2022/05/21 12:21:32;;;;;;;1.80;0.93;;;20.70;50.20;;;;;;5004046;28;20491;-45
2022/05/21 12:24:36;;;;;;;2.97;1.33;;;20.70;50.40;;;;;;5006309;28;20468;-45
2022/05/21 12:27:15;;;;;;;1.67;0.97;;;20.70;50.30;;;;;;5011861;28;20466;-45
2022/05/21 12:29:45;;;;;;;1.37;1.10;;;20.70;51.60;;;;;;5011244;28;20522;-45
2022/05/21 12:32:16;;;;;;;1.17;1.07;;;20.70;49.60;;;;;;5006512;28;20496;-45
2022/05/21 12:34:57;;;;;;;1.47;1.27;;;20.70;51.30;;;;;;4987336;28;20492;-45
2022/05/21 12:37:30;;;;;;;2.97;2.20;;;20.80;49.60;;;;;;5004062;28;20467;-45
2022/05/21 12:40:29;;;;;;;2.33;1.33;;;20.80;50.90;;;;;;4997324;28;22189;-45
2022/05/21 12:43:22;;;;;;;2.07;1.17;;;20.80;50.10;;;;;;5004605;28;20456;-46
2022/05/21 12:45:50;;;;;;;5.10;1.60;;;20.90;50.00;;;;;;4984257;28;20839;-46
2022/05/21 12:48:23;;;;;;;1.53;1.20;;;20.90;49.70;;;;;;5008605;28;20459;-45
2022/05/21 12:50:57;;;;;;;6.20;1.90;;;20.90;48.30;;;;;;5008534;28;20456;-45
2022/05/21 12:53:36;;;;;;;2.80;1.40;;;20.90;50.70;;;;;;5009613;28;20572;-45
2022/05/21 12:56:23;;;;;;;1.47;1.10;;;20.90;49.40;;;;;;5004155;28;21042;-46
2022/05/21 12:59:16;;;;;;;1.40;1.20;;;20.90;50.40;;;;;;5011165;28;20459;-46
2022/05/21 13:01:57;;;;;;;2.00;1.53;;;21.00;50.80;;;;;;5003142;28;20463;-46
2022/05/21 13:04:29;;;;;;;3.77;1.23;;;21.00;51.60;;;;;;5007553;28;20463;-46
2022/05/21 13:07:04;;;;;;;2.43;1.10;;;21.10;50.50;;;;;;5010635;28;20468;-46
2022/05/21 13:09:38;;;;;;;2.30;1.17;;;21.10;51.00;;;;;;5006356;28;20470;-46
2022/05/21 13:12:13;;;;;;;1.10;1.00;;;21.00;49.50;;;;;;5011300;28;20447;-45
2022/05/21 13:14:40;;;;;;;1.47;1.33;;;21.00;49.40;;;;;;4987082;28;20486;-45
2022/05/21 13:17:35;;;;;;;34.90;5.00;;;21.00;49.40;;;;;;5003700;28;20456;-45
2022/05/21 13:20:15;;;;;;;2.10;1.57;;;21.00;49.90;;;;;;5001509;28;20519;-46
2022/05/21 13:22:48;;;;;;;1.77;1.13;;;20.90;50.30;;;;;;5010839;28;20482;-46
2022/05/21 13:25:15;;;;;;;4.43;1.40;;;21.00;50.60;;;;;;5008198;28;20815;-46
2022/05/21 13:27:48;;;;;;;1.73;1.27;;;20.90;50.70;;;;;;5006718;28;20460;-46
2022/05/21 13:30:22;;;;;;;3.97;1.10;;;20.90;51.20;;;;;;4999597;28;20838;-45
2022/05/21 13:32:54;;;;;;;1.20;1.00;;;20.90;50.70;;;;;;4992130;28;20842;-46
2022/05/21 13:35:33;;;;;;;2.10;1.23;;;21.00;51.70;;;;;;5011284;28;20522;-45
2022/05/21 13:38:04;;;;;;;3.80;1.20;;;21.00;50.30;;;;;;4989447;28;20460;-46
2022/05/21 13:40:34;;;;;;;3.90;1.57;;;21.10;50.20;;;;;;5004367;28;20559;-46
2022/05/21 13:43:11;;;;;;;2.10;1.23;;;21.10;50.30;;;;;;5007048;28;20550;-46